sensor_id;sensor_type;location;lat;lon;timestamp;P1;durP1;ratioP1;P2;durP2;ratioP2
51214;SDS011;63849;47.546;19.254;2023-04-24T00:00:56;10.30;;;6.53;;
51214;SDS011;63849;47.546;19.254;2023-04-24T00:03:24;6.50;;;5.85;;
51214;SDS011;63849;47.546;19.254;2023-04-24T00:05:50;9.93;;;5.93;;
51214;SDS011;63849;47.546;19.254;2023-04-24T00:08:16;12.90;;;6.93;;
51214;SDS011;63849;47.546;19.254;2023-04-24T00:10:43;6.75;;;6.10;;
51214;SDS011;63849;47.546;19.254;2023-04-24T00:13:08;7.57;;;6.18;;
51214;SDS011;63849;47.546;19.254;2023-04-24T00:15:34;8.68;;;6.05;;
51214;SDS011;63849;47.546;19.254;2023-04-24T00:18:00;9.30;;;6.22;;
51214;SDS011;63849;47.546;19.254;2023-04-24T00:20:26;8.30;;;6.53;;
51214;SDS011;63849;47.546;19.254;2023-04-24T00:22:57;8.15;;;6.13;;
51214;SDS011;63849;47.546;19.254;2023-04-24T00:25:24;8.43;;;6.45;;
51214;SDS011;63849;47.546;19.254;2023-04-24T00:27:50;9.10;;;6.30;;
51214;SDS011;63849;47.546;19.254;2023-04-24T00:30:16;6.93;;;5.82;;
51214;SDS011;63849;47.546;19.254;2023-04-24T00:32:41;9.95;;;6.03;;
51214;SDS011;63849;47.546;19.254;2023-04-24T00:35:07;8.95;;;6.50;;
51214;SDS011;63849;47.546;19.254;2023-04-24T00:37:33;7.45;;;5.55;;
51214;SDS011;63849;47.546;19.254;2023-04-24T00:39:59;8.05;;;6.10;;
51214;SDS011;63849;47.546;19.254;2023-04-24T00:42:25;7.30;;;6.18;;
51214;SDS011;63849;47.546;19.254;2023-04-24T00:44:51;9.57;;;6.18;;
51214;SDS011;63849;47.546;19.254;2023-04-24T00:47:18;7.65;;;6.03;;
51214;SDS011;63849;47.546;19.254;2023-04-24T00:49:45;8.70;;;6.03;;
51214;SDS011;63849;47.546;19.254;2023-04-24T00:52:11;8.93;;;6.45;;
51214;SDS011;63849;47.546;19.254;2023-04-24T00:54:37;9.60;;;5.93;;
51214;SDS011;63849;47.546;19.254;2023-04-24T00:57:03;8.82;;;5.65;;
51214;SDS011;63849;47.546;19.254;2023-04-24T00:59:30;9.52;;;6.55;;
51214;SDS011;63849;47.546;19.254;2023-04-24T01:01:56;10.27;;;6.35;;
51214;SDS011;63849;47.546;19.254;2023-04-24T01:04:23;8.90;;;6.57;;
51214;SDS011;63849;47.546;19.254;2023-04-24T01:06:51;7.15;;;6.45;;
51214;SDS011;63849;47.546;19.254;2023-04-24T01:09:17;13.95;;;7.00;;
51214;SDS011;63849;47.546;19.254;2023-04-24T01:11:44;9.07;;;6.30;;
51214;SDS011;63849;47.546;19.254;2023-04-24T01:14:10;7.35;;;6.65;;
51214;SDS011;63849;47.546;19.254;2023-04-24T01:16:36;9.85;;;6.72;;
51214;SDS011;63849;47.546;19.254;2023-04-24T01:19:03;11.40;;;6.22;;
51214;SDS011;63849;47.546;19.254;2023-04-24T01:21:31;10.35;;;6.78;;
51214;SDS011;63849;47.546;19.254;2023-04-24T01:24:02;7.72;;;6.30;;
51214;SDS011;63849;47.546;19.254;2023-04-24T01:26:29;7.70;;;6.38;;
51214;SDS011;63849;47.546;19.254;2023-04-24T01:28:55;10.75;;;6.75;;
51214;SDS011;63849;47.546;19.254;2023-04-24T01:31:21;8.57;;;6.45;;
51214;SDS011;63849;47.546;19.254;2023-04-24T01:33:47;9.02;;;6.32;;
51214;SDS011;63849;47.546;19.254;2023-04-24T01:36:14;13.00;;;7.07;;
51214;SDS011;63849;47.546;19.254;2023-04-24T01:38:41;9.38;;;6.63;;
51214;SDS011;63849;47.546;19.254;2023-04-24T01:41:07;7.30;;;6.38;;
51214;SDS011;63849;47.546;19.254;2023-04-24T01:43:33;9.35;;;7.40;;
51214;SDS011;63849;47.546;19.254;2023-04-24T01:45:59;14.35;;;7.07;;
51214;SDS011;63849;47.546;19.254;2023-04-24T01:48:27;8.27;;;6.75;;
51214;SDS011;63849;47.546;19.254;2023-04-24T01:50:53;8.65;;;6.28;;
51214;SDS011;63849;47.546;19.254;2023-04-24T01:53:19;8.10;;;6.90;;
51214;SDS011;63849;47.546;19.254;2023-04-24T01:55:45;12.18;;;7.15;;
51214;SDS011;63849;47.546;19.254;2023-04-24T01:58:11;8.38;;;6.15;;
51214;SDS011;63849;47.546;19.254;2023-04-24T02:00:37;9.93;;;6.68;;
51214;SDS011;63849;47.546;19.254;2023-04-24T02:03:03;11.07;;;7.28;;
51214;SDS011;63849;47.546;19.254;2023-04-24T02:05:29;9.48;;;7.07;;
51214;SDS011;63849;47.546;19.254;2023-04-24T02:07:55;8.60;;;7.28;;
51214;SDS011;63849;47.546;19.254;2023-04-24T02:10:20;14.68;;;7.25;;
51214;SDS011;63849;47.546;19.254;2023-04-24T02:12:47;10.30;;;7.55;;
51214;SDS011;63849;47.546;19.254;2023-04-24T02:15:12;8.48;;;7.32;;
51214;SDS011;63849;47.546;19.254;2023-04-24T02:17:38;10.65;;;6.70;;
51214;SDS011;63849;47.546;19.254;2023-04-24T02:20:05;9.50;;;6.88;;
51214;SDS011;63849;47.546;19.254;2023-04-24T02:22:31;11.10;;;7.22;;
51214;SDS011;63849;47.546;19.254;2023-04-24T02:24:58;11.02;;;6.90;;
51214;SDS011;63849;47.546;19.254;2023-04-24T02:27:24;9.77;;;6.97;;
51214;SDS011;63849;47.546;19.254;2023-04-24T02:29:50;8.88;;;7.32;;
51214;SDS011;63849;47.546;19.254;2023-04-24T02:32:17;9.70;;;7.07;;
51214;SDS011;63849;47.546;19.254;2023-04-24T02:34:43;10.73;;;7.43;;
51214;SDS011;63849;47.546;19.254;2023-04-24T02:37:09;10.32;;;8.23;;
51214;SDS011;63849;47.546;19.254;2023-04-24T02:39:35;14.20;;;9.25;;
51214;SDS011;63849;47.546;19.254;2023-04-24T02:42:00;10.45;;;8.88;;
51214;SDS011;63849;47.546;19.254;2023-04-24T02:44:26;14.82;;;9.20;;
51214;SDS011;63849;47.546;19.254;2023-04-24T02:46:52;12.85;;;9.63;;
51214;SDS011;63849;47.546;19.254;2023-04-24T02:49:18;11.10;;;9.25;;
51214;SDS011;63849;47.546;19.254;2023-04-24T02:51:44;13.27;;;10.20;;
51214;SDS011;63849;47.546;19.254;2023-04-24T02:54:09;12.43;;;8.60;;
51214;SDS011;63849;47.546;19.254;2023-04-24T02:56:36;10.15;;;9.02;;
51214;SDS011;63849;47.546;19.254;2023-04-24T02:59:03;10.07;;;8.80;;
51214;SDS011;63849;47.546;19.254;2023-04-24T03:01:29;13.02;;;9.02;;
51214;SDS011;63849;47.546;19.254;2023-04-24T03:03:54;12.77;;;9.45;;
51214;SDS011;63849;47.546;19.254;2023-04-24T03:06:20;16.10;;;9.48;;
51214;SDS011;63849;47.546;19.254;2023-04-24T03:08:46;11.48;;;9.25;;
51214;SDS011;63849;47.546;19.254;2023-04-24T03:11:12;14.80;;;8.90;;
51214;SDS011;63849;47.546;19.254;2023-04-24T03:13:38;14.15;;;9.88;;
51214;SDS011;63849;47.546;19.254;2023-04-24T03:16:04;11.93;;;9.23;;
51214;SDS011;63849;47.546;19.254;2023-04-24T03:18:30;10.70;;;9.43;;
51214;SDS011;63849;47.546;19.254;2023-04-24T03:20:56;9.70;;;8.80;;
51214;SDS011;63849;47.546;19.254;2023-04-24T03:23:22;10.57;;;9.13;;
51214;SDS011;63849;47.546;19.254;2023-04-24T03:25:48;11.35;;;9.38;;
51214;SDS011;63849;47.546;19.254;2023-04-24T03:28:14;11.23;;;9.38;;
51214;SDS011;63849;47.546;19.254;2023-04-24T03:30:40;10.82;;;9.38;;
51214;SDS011;63849;47.546;19.254;2023-04-24T03:33:06;10.73;;;9.38;;
51214;SDS011;63849;47.546;19.254;2023-04-24T03:35:32;14.30;;;10.65;;
51214;SDS011;63849;47.546;19.254;2023-04-24T03:37:58;10.02;;;9.02;;
51214;SDS011;63849;47.546;19.254;2023-04-24T03:40:23;10.95;;;9.85;;
51214;SDS011;63849;47.546;19.254;2023-04-24T03:42:49;11.65;;;10.10;;
51214;SDS011;63849;47.546;19.254;2023-04-24T03:45:15;14.02;;;9.77;;
51214;SDS011;63849;47.546;19.254;2023-04-24T03:47:41;10.45;;;8.65;;
51214;SDS011;63849;47.546;19.254;2023-04-24T03:50:07;11.82;;;8.95;;
51214;SDS011;63849;47.546;19.254;2023-04-24T03:52:33;13.27;;;9.38;;
51214;SDS011;63849;47.546;19.254;2023-04-24T03:54:59;11.25;;;9.23;;
51214;SDS011;63849;47.546;19.254;2023-04-24T03:57:24;11.20;;;9.88;;
51214;SDS011;63849;47.546;19.254;2023-04-24T03:59:50;13.05;;;9.75;;
51214;SDS011;63849;47.546;19.254;2023-04-24T04:02:16;12.52;;;9.30;;
51214;SDS011;63849;47.546;19.254;2023-04-24T04:04:42;13.23;;;10.52;;
51214;SDS011;63849;47.546;19.254;2023-04-24T04:07:08;15.85;;;10.05;;
51214;SDS011;63849;47.546;19.254;2023-04-24T04:09:34;10.95;;;9.20;;
51214;SDS011;63849;47.546;19.254;2023-04-24T04:11:59;11.88;;;10.00;;
51214;SDS011;63849;47.546;19.254;2023-04-24T04:14:26;11.70;;;9.85;;
51214;SDS011;63849;47.546;19.254;2023-04-24T04:16:52;12.77;;;10.68;;
51214;SDS011;63849;47.546;19.254;2023-04-24T04:19:19;13.80;;;10.05;;
51214;SDS011;63849;47.546;19.254;2023-04-24T04:21:45;11.38;;;10.07;;
51214;SDS011;63849;47.546;19.254;2023-04-24T04:24:15;11.32;;;10.18;;
51214;SDS011;63849;47.546;19.254;2023-04-24T04:26:41;13.40;;;9.98;;
51214;SDS011;63849;47.546;19.254;2023-04-24T04:29:12;11.23;;;10.07;;
51214;SDS011;63849;47.546;19.254;2023-04-24T04:31:38;11.40;;;10.23;;
51214;SDS011;63849;47.546;19.254;2023-04-24T04:34:04;11.25;;;10.20;;
51214;SDS011;63849;47.546;19.254;2023-04-24T04:36:30;12.88;;;9.82;;
51214;SDS011;63849;47.546;19.254;2023-04-24T04:38:56;11.20;;;9.60;;
51214;SDS011;63849;47.546;19.254;2023-04-24T04:41:24;13.15;;;10.18;;
51214;SDS011;63849;47.546;19.254;2023-04-24T04:43:50;13.07;;;10.82;;
51214;SDS011;63849;47.546;19.254;2023-04-24T04:46:17;13.10;;;10.00;;
51214;SDS011;63849;47.546;19.254;2023-04-24T04:48:43;12.23;;;10.35;;
51214;SDS011;63849;47.546;19.254;2023-04-24T04:51:09;16.58;;;10.57;;
51214;SDS011;63849;47.546;19.254;2023-04-24T04:53:35;15.80;;;10.95;;
51214;SDS011;63849;47.546;19.254;2023-04-24T04:56:01;12.60;;;10.27;;
51214;SDS011;63849;47.546;19.254;2023-04-24T04:58:27;13.15;;;10.07;;
51214;SDS011;63849;47.546;19.254;2023-04-24T05:00:53;13.68;;;10.10;;
51214;SDS011;63849;47.546;19.254;2023-04-24T05:03:18;12.90;;;10.50;;
51214;SDS011;63849;47.546;19.254;2023-04-24T05:05:44;12.25;;;10.50;;
51214;SDS011;63849;47.546;19.254;2023-04-24T05:08:11;12.48;;;10.50;;
51214;SDS011;63849;47.546;19.254;2023-04-24T05:10:37;11.98;;;10.25;;
51214;SDS011;63849;47.546;19.254;2023-04-24T05:13:03;11.45;;;10.25;;
51214;SDS011;63849;47.546;19.254;2023-04-24T05:15:29;14.10;;;10.57;;
51214;SDS011;63849;47.546;19.254;2023-04-24T05:17:55;12.05;;;9.90;;
51214;SDS011;63849;47.546;19.254;2023-04-24T05:20:21;13.00;;;11.10;;
51214;SDS011;63849;47.546;19.254;2023-04-24T05:22:47;12.30;;;9.77;;
51214;SDS011;63849;47.546;19.254;2023-04-24T05:25:13;15.23;;;10.20;;
51214;SDS011;63849;47.546;19.254;2023-04-24T05:27:38;13.18;;;10.55;;
51214;SDS011;63849;47.546;19.254;2023-04-24T05:30:05;14.55;;;9.90;;
51214;SDS011;63849;47.546;19.254;2023-04-24T05:32:31;11.88;;;10.20;;
51214;SDS011;63849;47.546;19.254;2023-04-24T05:34:57;11.98;;;10.15;;
51214;SDS011;63849;47.546;19.254;2023-04-24T05:37:23;11.52;;;9.77;;
51214;SDS011;63849;47.546;19.254;2023-04-24T05:39:49;13.00;;;11.05;;
51214;SDS011;63849;47.546;19.254;2023-04-24T05:42:15;12.48;;;10.50;;
51214;SDS011;63849;47.546;19.254;2023-04-24T05:44:41;14.60;;;10.88;;
51214;SDS011;63849;47.546;19.254;2023-04-24T05:47:07;11.40;;;10.23;;
51214;SDS011;63849;47.546;19.254;2023-04-24T05:49:33;16.13;;;10.43;;
51214;SDS011;63849;47.546;19.254;2023-04-24T05:51:58;13.02;;;10.35;;
51214;SDS011;63849;47.546;19.254;2023-04-24T05:54:24;14.40;;;11.02;;
51214;SDS011;63849;47.546;19.254;2023-04-24T05:56:51;11.52;;;10.23;;
51214;SDS011;63849;47.546;19.254;2023-04-24T05:59:17;19.15;;;10.93;;
51214;SDS011;63849;47.546;19.254;2023-04-24T06:01:43;12.48;;;11.02;;
51214;SDS011;63849;47.546;19.254;2023-04-24T06:04:09;15.43;;;10.93;;
51214;SDS011;63849;47.546;19.254;2023-04-24T06:06:36;13.00;;;10.35;;
51214;SDS011;63849;47.546;19.254;2023-04-24T06:09:01;12.75;;;10.50;;
51214;SDS011;63849;47.546;19.254;2023-04-24T06:11:28;13.13;;;9.65;;
51214;SDS011;63849;47.546;19.254;2023-04-24T06:13:54;11.75;;;10.30;;
51214;SDS011;63849;47.546;19.254;2023-04-24T06:16:20;11.90;;;10.60;;
51214;SDS011;63849;47.546;19.254;2023-04-24T06:18:46;13.52;;;11.18;;
51214;SDS011;63849;47.546;19.254;2023-04-24T06:21:12;11.98;;;10.70;;
51214;SDS011;63849;47.546;19.254;2023-04-24T06:23:38;12.80;;;11.02;;
51214;SDS011;63849;47.546;19.254;2023-04-24T06:26:04;14.90;;;11.30;;
51214;SDS011;63849;47.546;19.254;2023-04-24T06:28:29;12.30;;;10.38;;
51214;SDS011;63849;47.546;19.254;2023-04-24T06:30:55;15.98;;;11.23;;
51214;SDS011;63849;47.546;19.254;2023-04-24T06:33:21;20.35;;;10.88;;
51214;SDS011;63849;47.546;19.254;2023-04-24T06:35:47;13.25;;;10.80;;
51214;SDS011;63849;47.546;19.254;2023-04-24T06:38:13;11.07;;;9.23;;
51214;SDS011;63849;47.546;19.254;2023-04-24T06:40:39;13.55;;;9.75;;
51214;SDS011;63849;47.546;19.254;2023-04-24T06:43:05;12.02;;;9.73;;
51214;SDS011;63849;47.546;19.254;2023-04-24T06:45:31;15.27;;;10.93;;
51214;SDS011;63849;47.546;19.254;2023-04-24T06:47:57;11.68;;;9.30;;
51214;SDS011;63849;47.546;19.254;2023-04-24T06:50:23;12.32;;;8.63;;
51214;SDS011;63849;47.546;19.254;2023-04-24T06:52:50;14.98;;;8.82;;
51214;SDS011;63849;47.546;19.254;2023-04-24T06:55:16;9.98;;;8.70;;
51214;SDS011;63849;47.546;19.254;2023-04-24T06:57:44;10.05;;;8.85;;
51214;SDS011;63849;47.546;19.254;2023-04-24T07:00:10;12.20;;;9.80;;
51214;SDS011;63849;47.546;19.254;2023-04-24T07:02:37;13.15;;;9.57;;
51214;SDS011;63849;47.546;19.254;2023-04-24T07:05:03;13.90;;;11.07;;
51214;SDS011;63849;47.546;19.254;2023-04-24T07:07:30;12.43;;;11.18;;
51214;SDS011;63849;47.546;19.254;2023-04-24T07:09:56;16.45;;;11.00;;
51214;SDS011;63849;47.546;19.254;2023-04-24T07:12:23;14.55;;;12.85;;
51214;SDS011;63849;47.546;19.254;2023-04-24T07:14:49;13.63;;;12.30;;
51214;SDS011;63849;47.546;19.254;2023-04-24T07:17:15;13.68;;;12.18;;
51214;SDS011;63849;47.546;19.254;2023-04-24T07:19:41;15.63;;;12.20;;
51214;SDS011;63849;47.546;19.254;2023-04-24T07:22:07;15.05;;;12.73;;
51214;SDS011;63849;47.546;19.254;2023-04-24T07:24:33;14.23;;;11.60;;
51214;SDS011;63849;47.546;19.254;2023-04-24T07:26:59;16.55;;;12.45;;
51214;SDS011;63849;47.546;19.254;2023-04-24T07:29:26;12.73;;;11.45;;
51214;SDS011;63849;47.546;19.254;2023-04-24T07:31:52;12.35;;;11.15;;
51214;SDS011;63849;47.546;19.254;2023-04-24T07:34:19;14.73;;;12.05;;
51214;SDS011;63849;47.546;19.254;2023-04-24T07:36:45;14.35;;;12.52;;
51214;SDS011;63849;47.546;19.254;2023-04-24T07:39:11;14.38;;;12.88;;
51214;SDS011;63849;47.546;19.254;2023-04-24T07:41:37;16.73;;;12.60;;
51214;SDS011;63849;47.546;19.254;2023-04-24T07:44:03;13.77;;;12.18;;
51214;SDS011;63849;47.546;19.254;2023-04-24T07:46:29;15.27;;;12.50;;
51214;SDS011;63849;47.546;19.254;2023-04-24T07:48:55;13.93;;;12.35;;
51214;SDS011;63849;47.546;19.254;2023-04-24T07:51:21;17.70;;;11.68;;
51214;SDS011;63849;47.546;19.254;2023-04-24T07:53:47;15.32;;;12.75;;
51214;SDS011;63849;47.546;19.254;2023-04-24T07:56:13;14.30;;;11.43;;
51214;SDS011;63849;47.546;19.254;2023-04-24T07:58:39;13.13;;;11.77;;
51214;SDS011;63849;47.546;19.254;2023-04-24T08:01:06;14.93;;;12.18;;
51214;SDS011;63849;47.546;19.254;2023-04-24T08:03:32;14.05;;;12.60;;
51214;SDS011;63849;47.546;19.254;2023-04-24T08:05:58;16.55;;;12.23;;
51214;SDS011;63849;47.546;19.254;2023-04-24T08:08:24;14.57;;;12.10;;
51214;SDS011;63849;47.546;19.254;2023-04-24T08:10:51;17.33;;;12.00;;
51214;SDS011;63849;47.546;19.254;2023-04-24T08:13:17;14.50;;;13.05;;
51214;SDS011;63849;47.546;19.254;2023-04-24T08:15:43;13.98;;;12.57;;
51214;SDS011;63849;47.546;19.254;2023-04-24T08:18:09;14.20;;;12.80;;
51214;SDS011;63849;47.546;19.254;2023-04-24T08:20:37;22.02;;;13.75;;
51214;SDS011;63849;47.546;19.254;2023-04-24T08:23:03;13.48;;;12.18;;
51214;SDS011;63849;47.546;19.254;2023-04-24T08:25:29;17.65;;;13.13;;
51214;SDS011;63849;47.546;19.254;2023-04-24T08:27:55;15.85;;;12.60;;
51214;SDS011;63849;47.546;19.254;2023-04-24T08:30:21;13.73;;;11.57;;
51214;SDS011;63849;47.546;19.254;2023-04-24T08:32:48;14.90;;;12.35;;
51214;SDS011;63849;47.546;19.254;2023-04-24T08:35:14;14.30;;;11.90;;
51214;SDS011;63849;47.546;19.254;2023-04-24T08:37:40;13.82;;;11.55;;
51214;SDS011;63849;47.546;19.254;2023-04-24T08:40:10;13.02;;;11.70;;
51214;SDS011;63849;47.546;19.254;2023-04-24T08:42:39;13.70;;;12.38;;
51214;SDS011;63849;47.546;19.254;2023-04-24T08:45:07;13.77;;;12.25;;
51214;SDS011;63849;47.546;19.254;2023-04-24T08:47:33;15.80;;;12.15;;
51214;SDS011;63849;47.546;19.254;2023-04-24T08:50:03;13.95;;;12.07;;
51214;SDS011;63849;47.546;19.254;2023-04-24T08:52:32;16.15;;;11.90;;
51214;SDS011;63849;47.546;19.254;2023-04-24T08:54:59;12.70;;;11.40;;
51214;SDS011;63849;47.546;19.254;2023-04-24T08:57:26;13.10;;;11.50;;
51214;SDS011;63849;47.546;19.254;2023-04-24T08:59:53;14.20;;;11.27;;
51214;SDS011;63849;47.546;19.254;2023-04-24T09:02:20;12.48;;;10.55;;
51214;SDS011;63849;47.546;19.254;2023-04-24T09:04:46;13.35;;;10.88;;
51214;SDS011;63849;47.546;19.254;2023-04-24T09:07:15;14.88;;;11.20;;
51214;SDS011;63849;47.546;19.254;2023-04-24T09:09:43;11.80;;;10.10;;
51214;SDS011;63849;47.546;19.254;2023-04-24T09:12:09;11.85;;;9.52;;
51214;SDS011;63849;47.546;19.254;2023-04-24T09:14:36;9.55;;;8.60;;
51214;SDS011;63849;47.546;19.254;2023-04-24T09:17:04;9.77;;;8.77;;
51214;SDS011;63849;47.546;19.254;2023-04-24T09:19:31;10.77;;;9.05;;
51214;SDS011;63849;47.546;19.254;2023-04-24T09:21:57;10.32;;;8.70;;
51214;SDS011;63849;47.546;19.254;2023-04-24T09:24:23;11.35;;;8.93;;
51214;SDS011;63849;47.546;19.254;2023-04-24T09:26:57;10.10;;;8.52;;
51214;SDS011;63849;47.546;19.254;2023-04-24T09:29:25;9.90;;;8.90;;
51214;SDS011;63849;47.546;19.254;2023-04-24T09:31:50;9.20;;;7.35;;
51214;SDS011;63849;47.546;19.254;2023-04-24T09:34:27;9.95;;;7.28;;
51214;SDS011;63849;47.546;19.254;2023-04-24T09:36:53;7.78;;;6.97;;
51214;SDS011;63849;47.546;19.254;2023-04-24T09:39:20;6.60;;;5.93;;
51214;SDS011;63849;47.546;19.254;2023-04-24T09:41:47;8.15;;;6.10;;
51214;SDS011;63849;47.546;19.254;2023-04-24T09:44:16;6.22;;;5.55;;
51214;SDS011;63849;47.546;19.254;2023-04-24T09:46:44;6.72;;;5.78;;
51214;SDS011;63849;47.546;19.254;2023-04-24T09:49:15;6.65;;;6.05;;
51214;SDS011;63849;47.546;19.254;2023-04-24T09:51:41;7.97;;;5.68;;
51214;SDS011;63849;47.546;19.254;2023-04-24T09:54:20;7.50;;;6.38;;
51214;SDS011;63849;47.546;19.254;2023-04-24T09:56:48;7.25;;;6.55;;
51214;SDS011;63849;47.546;19.254;2023-04-24T09:59:16;7.07;;;6.38;;
51214;SDS011;63849;47.546;19.254;2023-04-24T10:01:43;8.65;;;6.45;;
51214;SDS011;63849;47.546;19.254;2023-04-24T10:06:55;11.73;;;7.88;;
51214;SDS011;63849;47.546;19.254;2023-04-24T10:09:23;13.35;;;9.48;;
51214;SDS011;63849;47.546;19.254;2023-04-24T10:11:50;10.20;;;8.35;;
51214;SDS011;63849;47.546;19.254;2023-04-24T10:14:19;9.23;;;8.02;;
51214;SDS011;63849;47.546;19.254;2023-04-24T10:16:47;9.27;;;7.60;;
51214;SDS011;63849;47.546;19.254;2023-04-24T10:19:15;7.85;;;7.07;;
51214;SDS011;63849;47.546;19.254;2023-04-24T10:21:44;7.25;;;6.50;;
51214;SDS011;63849;47.546;19.254;2023-04-24T10:24:17;7.85;;;5.63;;
51214;SDS011;63849;47.546;19.254;2023-04-24T10:26:49;5.38;;;4.65;;
51214;SDS011;63849;47.546;19.254;2023-04-24T10:29:16;5.60;;;5.00;;
51214;SDS011;63849;47.546;19.254;2023-04-24T10:31:44;5.78;;;4.90;;
51214;SDS011;63849;47.546;19.254;2023-04-24T10:34:11;6.75;;;4.50;;
51214;SDS011;63849;47.546;19.254;2023-04-24T10:36:41;8.00;;;5.00;;
51214;SDS011;63849;47.546;19.254;2023-04-24T10:39:12;6.90;;;4.88;;
51214;SDS011;63849;47.546;19.254;2023-04-24T10:41:42;7.57;;;4.65;;
51214;SDS011;63849;47.546;19.254;2023-04-24T10:44:09;7.10;;;5.00;;
51214;SDS011;63849;47.546;19.254;2023-04-24T10:46:37;5.53;;;5.03;;
51214;SDS011;63849;47.546;19.254;2023-04-24T10:49:07;7.57;;;5.35;;
51214;SDS011;63849;47.546;19.254;2023-04-24T10:51:47;6.35;;;5.07;;
51214;SDS011;63849;47.546;19.254;2023-04-24T10:54:34;5.63;;;4.80;;
51214;SDS011;63849;47.546;19.254;2023-04-24T10:59:45;5.43;;;4.93;;
51214;SDS011;63849;47.546;19.254;2023-04-24T11:02:15;10.05;;;5.22;;
51214;SDS011;63849;47.546;19.254;2023-04-24T11:04:42;6.47;;;5.72;;
51214;SDS011;63849;47.546;19.254;2023-04-24T11:07:09;7.00;;;5.35;;
51214;SDS011;63849;47.546;19.254;2023-04-24T11:09:37;7.00;;;5.65;;
51214;SDS011;63849;47.546;19.254;2023-04-24T11:12:06;9.80;;;6.00;;
51214;SDS011;63849;47.546;19.254;2023-04-24T11:17:32;7.35;;;5.93;;
51214;SDS011;63849;47.546;19.254;2023-04-24T11:22:33;8.85;;;5.88;;
51214;SDS011;63849;47.546;19.254;2023-04-24T11:25:01;7.63;;;6.72;;
51214;SDS011;63849;47.546;19.254;2023-04-24T11:27:30;9.52;;;6.40;;
51214;SDS011;63849;47.546;19.254;2023-04-24T11:30:00;11.40;;;6.72;;
51214;SDS011;63849;47.546;19.254;2023-04-24T11:32:40;8.68;;;6.10;;
51214;SDS011;63849;47.546;19.254;2023-04-24T11:35:14;8.65;;;6.60;;
51214;SDS011;63849;47.546;19.254;2023-04-24T11:37:42;9.20;;;6.75;;
51214;SDS011;63849;47.546;19.254;2023-04-24T11:40:14;7.95;;;5.93;;
51214;SDS011;63849;47.546;19.254;2023-04-24T11:42:51;8.30;;;7.40;;
51214;SDS011;63849;47.546;19.254;2023-04-24T11:45:21;10.40;;;7.38;;
51214;SDS011;63849;47.546;19.254;2023-04-24T11:47:54;10.32;;;6.57;;
51214;SDS011;63849;47.546;19.254;2023-04-24T11:50:22;8.18;;;6.38;;
51214;SDS011;63849;47.546;19.254;2023-04-24T11:52:51;10.52;;;6.10;;
51214;SDS011;63849;47.546;19.254;2023-04-24T11:57:48;8.52;;;7.20;;
51214;SDS011;63849;47.546;19.254;2023-04-24T12:00:21;8.45;;;6.22;;
51214;SDS011;63849;47.546;19.254;2023-04-24T12:02:49;9.95;;;6.13;;
51214;SDS011;63849;47.546;19.254;2023-04-24T12:05:25;8.23;;;7.13;;
51214;SDS011;63849;47.546;19.254;2023-04-24T12:07:52;9.00;;;6.60;;
51214;SDS011;63849;47.546;19.254;2023-04-24T12:10:22;10.27;;;7.05;;
51214;SDS011;63849;47.546;19.254;2023-04-24T12:12:50;11.85;;;8.63;;
51214;SDS011;63849;47.546;19.254;2023-04-24T12:15:17;10.07;;;8.77;;
51214;SDS011;63849;47.546;19.254;2023-04-24T12:17:44;10.25;;;9.18;;
51214;SDS011;63849;47.546;19.254;2023-04-24T12:20:11;14.57;;;8.95;;
51214;SDS011;63849;47.546;19.254;2023-04-24T12:22:44;13.68;;;9.40;;
51214;SDS011;63849;47.546;19.254;2023-04-24T12:25:11;13.45;;;9.43;;
51214;SDS011;63849;47.546;19.254;2023-04-24T12:27:38;11.52;;;10.25;;
51214;SDS011;63849;47.546;19.254;2023-04-24T12:30:05;12.23;;;10.68;;
51214;SDS011;63849;47.546;19.254;2023-04-24T12:32:34;13.30;;;10.25;;
51214;SDS011;63849;47.546;19.254;2023-04-24T12:35:05;10.20;;;6.40;;
51214;SDS011;63849;47.546;19.254;2023-04-24T12:37:32;9.00;;;5.45;;
51214;SDS011;63849;47.546;19.254;2023-04-24T12:42:29;7.82;;;3.47;;
51214;SDS011;63849;47.546;19.254;2023-04-24T12:44:56;5.32;;;3.80;;
51214;SDS011;63849;47.546;19.254;2023-04-24T12:47:28;8.38;;;4.82;;
51214;SDS011;63849;47.546;19.254;2023-04-24T12:49:57;9.30;;;4.57;;
51214;SDS011;63849;47.546;19.254;2023-04-24T12:52:28;7.18;;;5.78;;
51214;SDS011;63849;47.546;19.254;2023-04-24T12:54:55;7.03;;;6.13;;
51214;SDS011;63849;47.546;19.254;2023-04-24T12:57:23;9.27;;;8.18;;
51214;SDS011;63849;47.546;19.254;2023-04-24T12:59:49;8.93;;;7.93;;
51214;SDS011;63849;47.546;19.254;2023-04-24T13:02:18;9.07;;;7.68;;
51214;SDS011;63849;47.546;19.254;2023-04-24T13:04:44;9.30;;;8.07;;
51214;SDS011;63849;47.546;19.254;2023-04-24T13:07:12;8.55;;;6.50;;
51214;SDS011;63849;47.546;19.254;2023-04-24T13:09:39;13.60;;;6.43;;
51214;SDS011;63849;47.546;19.254;2023-04-24T13:12:05;8.57;;;5.35;;
51214;SDS011;63849;47.546;19.254;2023-04-24T13:14:34;6.60;;;4.72;;
51214;SDS011;63849;47.546;19.254;2023-04-24T13:17:00;6.53;;;4.55;;
51214;SDS011;63849;47.546;19.254;2023-04-24T13:19:28;7.57;;;5.82;;
51214;SDS011;63849;47.546;19.254;2023-04-24T13:21:54;6.07;;;4.82;;
51214;SDS011;63849;47.546;19.254;2023-04-24T13:24:23;7.35;;;5.18;;
51214;SDS011;63849;47.546;19.254;2023-04-24T13:26:54;5.38;;;4.88;;
51214;SDS011;63849;47.546;19.254;2023-04-24T13:29:21;6.80;;;4.78;;
51214;SDS011;63849;47.546;19.254;2023-04-24T13:31:49;7.35;;;4.82;;
51214;SDS011;63849;47.546;19.254;2023-04-24T13:34:16;11.02;;;4.50;;
51214;SDS011;63849;47.546;19.254;2023-04-24T13:36:43;10.98;;;5.47;;
51214;SDS011;63849;47.546;19.254;2023-04-24T13:39:09;17.30;;;4.65;;
51214;SDS011;63849;47.546;19.254;2023-04-24T13:41:35;21.52;;;5.50;;
51214;SDS011;63849;47.546;19.254;2023-04-24T13:44:05;9.38;;;4.43;;
51214;SDS011;63849;47.546;19.254;2023-04-24T13:46:31;7.10;;;4.55;;
51214;SDS011;63849;47.546;19.254;2023-04-24T13:48:57;8.90;;;4.70;;
51214;SDS011;63849;47.546;19.254;2023-04-24T13:51:25;8.13;;;4.63;;
51214;SDS011;63849;47.546;19.254;2023-04-24T13:53:54;8.10;;;4.47;;
51214;SDS011;63849;47.546;19.254;2023-04-24T13:56:20;10.50;;;4.53;;
51214;SDS011;63849;47.546;19.254;2023-04-24T13:58:47;6.07;;;5.10;;
51214;SDS011;63849;47.546;19.254;2023-04-24T14:01:13;5.68;;;4.22;;
51214;SDS011;63849;47.546;19.254;2023-04-24T14:03:40;6.55;;;4.88;;
51214;SDS011;63849;47.546;19.254;2023-04-24T14:06:06;8.75;;;5.00;;
51214;SDS011;63849;47.546;19.254;2023-04-24T14:08:32;5.57;;;4.40;;
51214;SDS011;63849;47.546;19.254;2023-04-24T14:10:58;6.47;;;4.15;;
51214;SDS011;63849;47.546;19.254;2023-04-24T14:13:24;7.30;;;4.43;;
51214;SDS011;63849;47.546;19.254;2023-04-24T14:15:50;5.32;;;4.10;;
51214;SDS011;63849;47.546;19.254;2023-04-24T14:18:17;9.65;;;4.97;;
51214;SDS011;63849;47.546;19.254;2023-04-24T14:20:44;5.35;;;4.72;;
51214;SDS011;63849;47.546;19.254;2023-04-24T14:23:10;6.05;;;4.40;;
51214;SDS011;63849;47.546;19.254;2023-04-24T14:25:38;6.30;;;4.45;;
51214;SDS011;63849;47.546;19.254;2023-04-24T14:28:05;5.20;;;4.45;;
51214;SDS011;63849;47.546;19.254;2023-04-24T14:30:32;6.90;;;4.63;;
51214;SDS011;63849;47.546;19.254;2023-04-24T14:32:58;6.25;;;4.95;;
51214;SDS011;63849;47.546;19.254;2023-04-24T14:35:24;5.63;;;4.40;;
51214;SDS011;63849;47.546;19.254;2023-04-24T14:37:50;6.38;;;4.28;;